<?xml version='1.0' encoding='UTF-8'?>
<gpx version="1.1" creator="https://www.komoot.de" xmlns="http://www.topografix.com/GPX/1/1" xmlns:xsi="http://www.w3.org/2001/XMLSchema-instance" xsi:schemaLocation="http://www.topografix.com/GPX/1/1 http://www.topografix.com/GPX/1/1/gpx.xsd">
  <metadata>
    <name>Martin Busch Hütte Vent</name>
    <author>
      <link href="https://www.komoot.de">
        <text>komoot</text>
        <type>text/html</type>
      </link>
    </author>
  </metadata>
  <trk>
    <name>Martin Busch Hütte Vent</name>
    <type>e_mtb</type>
    <trkseg>
      <trkpt lat="46.859967" lon="10.913629">
        <ele>1893.686824</ele>
        <time>2026-06-27T08:54:19.699Z</time>
      </trkpt>
      <trkpt lat="46.859622" lon="10.913301">
        <ele>1893.686824</ele>
        <time>2026-06-27T08:54:29.048Z</time>
      </trkpt>
      <trkpt lat="46.859535" lon="10.913258">
        <ele>1893.686824</ele>
        <time>2026-06-27T08:54:31.145Z</time>
      </trkpt>
      <trkpt lat="46.859449" lon="10.913259">
        <ele>1893.686824</ele>
        <time>2026-06-27T08:54:33.066Z</time>
      </trkpt>
      <trkpt lat="46.858939" lon="10.913373">
        <ele>1894.017152</ele>
        <time>2026-06-27T08:54:44.708Z</time>
      </trkpt>
      <trkpt lat="46.858871" lon="10.913389">
        <ele>1894.127631</ele>
        <time>2026-06-27T08:54:46.233Z</time>
      </trkpt>
      <trkpt lat="46.858799" lon="10.913403">
        <ele>1894.244140</ele>
        <time>2026-06-27T08:54:47.847Z</time>
      </trkpt>
      <trkpt lat="46.858701" lon="10.913380">
        <ele>1894.403349</ele>
        <time>2026-06-27T08:54:50.057Z</time>
      </trkpt>
      <trkpt lat="46.858543" lon="10.913196">
        <ele>1894.727332</ele>
        <time>2026-06-27T08:54:54.587Z</time>
      </trkpt>
      <trkpt lat="46.858552" lon="10.912998">
        <ele>1894.944989</ele>
        <time>2026-06-27T08:54:57.644Z</time>
      </trkpt>
      <trkpt lat="46.858512" lon="10.912814">
        <ele>1895.156765</ele>
        <time>2026-06-27T08:55:00.652Z</time>
      </trkpt>
      <trkpt lat="46.857977" lon="10.911589">
        <ele>1897.299181</ele>
        <time>2026-06-27T08:55:20.508Z</time>
      </trkpt>
      <trkpt lat="46.857926" lon="10.911485">
        <ele>1897.869051</ele>
        <time>2026-06-27T08:55:23.249Z</time>
      </trkpt>
      <trkpt lat="46.857846" lon="10.911405">
        <ele>1898.500149</ele>
        <time>2026-06-27T08:55:26.301Z</time>
      </trkpt>
      <trkpt lat="46.857758" lon="10.911340">
        <ele>1899.142139</ele>
        <time>2026-06-27T08:55:29.519Z</time>
      </trkpt>
      <trkpt lat="46.857011" lon="10.911535">
        <ele>1904.083375</ele>
        <time>2026-06-27T08:55:57.247Z</time>
      </trkpt>
      <trkpt lat="46.856859" lon="10.911493">
        <ele>1905.090688</ele>
        <time>2026-06-27T08:56:03.607Z</time>
      </trkpt>
      <trkpt lat="46.856725" lon="10.911521">
        <ele>1905.972138</ele>
        <time>2026-06-27T08:56:09.515Z</time>
      </trkpt>
      <trkpt lat="46.856663" lon="10.911477">
        <ele>1906.420902</ele>
        <time>2026-06-27T08:56:12.846Z</time>
      </trkpt>
      <trkpt lat="46.856440" lon="10.911017">
        <ele>1909.691920</ele>
        <time>2026-06-27T08:56:32.856Z</time>
      </trkpt>
      <trkpt lat="46.856296" lon="10.911495">
        <ele>1914.749006</ele>
        <time>2026-06-27T08:56:53.235Z</time>
      </trkpt>
      <trkpt lat="46.856203" lon="10.911769">
        <ele>1917.710626</ele>
        <time>2026-06-27T08:57:05.316Z</time>
      </trkpt>
      <trkpt lat="46.856160" lon="10.911803">
        <ele>1918.402726</ele>
        <time>2026-06-27T08:57:08.070Z</time>
      </trkpt>
      <trkpt lat="46.856113" lon="10.911711">
        <ele>1919.514574</ele>
        <time>2026-06-27T08:57:12.711Z</time>
      </trkpt>
      <trkpt lat="46.856083" lon="10.911623">
        <ele>1920.466582</ele>
        <time>2026-06-27T08:57:16.324Z</time>
      </trkpt>
      <trkpt lat="46.855893" lon="10.911383">
        <ele>1924.021265</ele>
        <time>2026-06-27T08:57:30.774Z</time>
      </trkpt>
      <trkpt lat="46.855732" lon="10.911107">
        <ele>1927.533626</ele>
        <time>2026-06-27T08:57:46.076Z</time>
      </trkpt>
      <trkpt lat="46.855568" lon="10.910915">
        <ele>1930.508028</ele>
        <time>2026-06-27T08:58:00.204Z</time>
      </trkpt>
      <trkpt lat="46.855412" lon="10.910655">
        <ele>1933.843018</ele>
        <time>2026-06-27T08:58:16.812Z</time>
      </trkpt>
      <trkpt lat="46.855192" lon="10.910374">
        <ele>1937.440704</ele>
        <time>2026-06-27T08:58:36.048Z</time>
      </trkpt>
      <trkpt lat="46.854805" lon="10.909950">
        <ele>1943.396558</ele>
        <time>2026-06-27T08:59:03.287Z</time>
      </trkpt>
      <trkpt lat="46.854699" lon="10.909773">
        <ele>1945.378200</ele>
        <time>2026-06-27T08:59:11.832Z</time>
      </trkpt>
      <trkpt lat="46.854681" lon="10.909597">
        <ele>1946.877061</ele>
        <time>2026-06-27T08:59:18.031Z</time>
      </trkpt>
      <trkpt lat="46.854466" lon="10.908944">
        <ele>1952.981291</ele>
        <time>2026-06-27T08:59:42.256Z</time>
      </trkpt>
      <trkpt lat="46.854365" lon="10.908532">
        <ele>1956.428352</ele>
        <time>2026-06-27T08:59:55.394Z</time>
      </trkpt>
      <trkpt lat="46.854324" lon="10.908554">
        <ele>1956.797954</ele>
        <time>2026-06-27T08:59:57.172Z</time>
      </trkpt>
      <trkpt lat="46.854335" lon="10.908848">
        <ele>1958.502000</ele>
        <time>2026-06-27T09:00:05.194Z</time>
      </trkpt>
      <trkpt lat="46.854276" lon="10.909340">
        <ele>1961.392859</ele>
        <time>2026-06-27T09:00:19.188Z</time>
      </trkpt>
      <trkpt lat="46.854332" lon="10.909897">
        <ele>1964.651104</ele>
        <time>2026-06-27T09:00:36.523Z</time>
      </trkpt>
      <trkpt lat="46.854492" lon="10.910413">
        <ele>1967.930053</ele>
        <time>2026-06-27T09:00:54.597Z</time>
      </trkpt>
      <trkpt lat="46.854520" lon="10.910597">
        <ele>1969.020981</ele>
        <time>2026-06-27T09:01:00.459Z</time>
      </trkpt>
      <trkpt lat="46.854477" lon="10.910765">
        <ele>1970.059134</ele>
        <time>2026-06-27T09:01:05.810Z</time>
      </trkpt>
      <trkpt lat="46.854456" lon="10.910977">
        <ele>1971.217346</ele>
        <time>2026-06-27T09:01:11.872Z</time>
      </trkpt>
      <trkpt lat="46.854295" lon="10.911525">
        <ele>1973.054303</ele>
        <time>2026-06-27T09:01:26.648Z</time>
      </trkpt>
      <trkpt lat="46.854278" lon="10.911658">
        <ele>1973.471026</ele>
        <time>2026-06-27T09:01:29.839Z</time>
      </trkpt>
      <trkpt lat="46.854292" lon="10.911860">
        <ele>1974.096356</ele>
        <time>2026-06-27T09:01:34.524Z</time>
      </trkpt>
      <trkpt lat="46.854270" lon="10.912384">
        <ele>1975.713270</ele>
        <time>2026-06-27T09:01:46.074Z</time>
      </trkpt>
      <trkpt lat="46.854308" lon="10.912594">
        <ele>1976.382312</ele>
        <time>2026-06-27T09:01:50.775Z</time>
      </trkpt>
      <trkpt lat="46.854276" lon="10.912890">
        <ele>1977.305288</ele>
        <time>2026-06-27T09:01:57.246Z</time>
      </trkpt>
      <trkpt lat="46.854245" lon="10.912963">
        <ele>1977.569945</ele>
        <time>2026-06-27T09:01:59.115Z</time>
      </trkpt>
      <trkpt lat="46.854087" lon="10.913135">
        <ele>1978.457072</ele>
        <time>2026-06-27T09:02:05.405Z</time>
      </trkpt>
      <trkpt lat="46.853861" lon="10.913362">
        <ele>1979.973319</ele>
        <time>2026-06-27T09:02:14.398Z</time>
      </trkpt>
      <trkpt lat="46.853765" lon="10.913564">
        <ele>1981.187827</ele>
        <time>2026-06-27T09:02:20.306Z</time>
      </trkpt>
      <trkpt lat="46.853665" lon="10.913674">
        <ele>1982.091261</ele>
        <time>2026-06-27T09:02:24.902Z</time>
      </trkpt>
      <trkpt lat="46.853401" lon="10.913721">
        <ele>1984.011326</ele>
        <time>2026-06-27T09:02:35.722Z</time>
      </trkpt>
      <trkpt lat="46.853249" lon="10.913828">
        <ele>1985.229257</ele>
        <time>2026-06-27T09:02:43.083Z</time>
      </trkpt>
      <trkpt lat="46.852969" lon="10.913876">
        <ele>1987.264607</ele>
        <time>2026-06-27T09:02:55.383Z</time>
      </trkpt>
      <trkpt lat="46.852671" lon="10.914105">
        <ele>1989.695071</ele>
        <time>2026-06-27T09:03:10.176Z</time>
      </trkpt>
      <trkpt lat="46.852574" lon="10.914138">
        <ele>1990.414083</ele>
        <time>2026-06-27T09:03:14.527Z</time>
      </trkpt>
      <trkpt lat="46.852089" lon="10.914301">
        <ele>1994.327396</ele>
        <time>2026-06-27T09:03:35.741Z</time>
      </trkpt>
      <trkpt lat="46.851828" lon="10.914285">
        <ele>1996.549906</ele>
        <time>2026-06-27T09:03:46.414Z</time>
      </trkpt>
      <trkpt lat="46.851458" lon="10.914390">
        <ele>1999.756563</ele>
        <time>2026-06-27T09:04:01.698Z</time>
      </trkpt>
      <trkpt lat="46.851299" lon="10.914468">
        <ele>2001.183419</ele>
        <time>2026-06-27T09:04:08.537Z</time>
      </trkpt>
      <trkpt lat="46.851076" lon="10.914452">
        <ele>2003.082961</ele>
        <time>2026-06-27T09:04:17.920Z</time>
      </trkpt>
      <trkpt lat="46.850875" lon="10.914377">
        <ele>2004.847850</ele>
        <time>2026-06-27T09:04:26.938Z</time>
      </trkpt>
      <trkpt lat="46.849995" lon="10.914539">
        <ele>2013.595386</ele>
        <time>2026-06-27T09:05:09.198Z</time>
      </trkpt>
      <trkpt lat="46.849695" lon="10.914511">
        <ele>2016.782586</ele>
        <time>2026-06-27T09:05:24.161Z</time>
      </trkpt>
      <trkpt lat="46.849421" lon="10.914356">
        <ele>2019.897488</ele>
        <time>2026-06-27T09:05:38.955Z</time>
      </trkpt>
      <trkpt lat="46.849289" lon="10.914313">
        <ele>2021.331321</ele>
        <time>2026-06-27T09:05:45.778Z</time>
      </trkpt>
      <trkpt lat="46.848042" lon="10.914169">
        <ele>2034.287464</ele>
        <time>2026-06-27T09:06:47.068Z</time>
      </trkpt>
      <trkpt lat="46.847870" lon="10.914107">
        <ele>2036.093875</ele>
        <time>2026-06-27T09:06:55.324Z</time>
      </trkpt>
      <trkpt lat="46.847671" lon="10.914094">
        <ele>2038.125116</ele>
        <time>2026-06-27T09:07:04.599Z</time>
      </trkpt>
      <trkpt lat="46.847171" lon="10.914158">
        <ele>2043.243152</ele>
        <time>2026-06-27T09:07:27.888Z</time>
      </trkpt>
      <trkpt lat="46.846834" lon="10.914119">
        <ele>2046.635419</ele>
        <time>2026-06-27T09:07:43.531Z</time>
      </trkpt>
      <trkpt lat="46.846667" lon="10.914129">
        <ele>2048.286778</ele>
        <time>2026-06-27T09:07:51.299Z</time>
      </trkpt>
      <trkpt lat="46.846352" lon="10.914032">
        <ele>2051.467286</ele>
        <time>2026-06-27T09:08:06.385Z</time>
      </trkpt>
      <trkpt lat="46.846210" lon="10.914062">
        <ele>2052.884831</ele>
        <time>2026-06-27T09:08:13.172Z</time>
      </trkpt>
      <trkpt lat="46.845851" lon="10.914021">
        <ele>2056.442591</ele>
        <time>2026-06-27T09:08:30.300Z</time>
      </trkpt>
      <trkpt lat="46.845607" lon="10.914056">
        <ele>2058.864909</ele>
        <time>2026-06-27T09:08:41.937Z</time>
      </trkpt>
      <trkpt lat="46.844949" lon="10.914043">
        <ele>2064.738059</ele>
        <time>2026-06-27T09:09:12.522Z</time>
      </trkpt>
      <trkpt lat="46.844721" lon="10.914102">
        <ele>2066.487485</ele>
        <time>2026-06-27T09:09:22.749Z</time>
      </trkpt>
      <trkpt lat="46.844402" lon="10.914119">
        <ele>2068.899286</ele>
        <time>2026-06-27T09:09:36.222Z</time>
      </trkpt>
      <trkpt lat="46.844110" lon="10.913997">
        <ele>2071.193807</ele>
        <time>2026-06-27T09:09:48.451Z</time>
      </trkpt>
      <trkpt lat="46.843825" lon="10.913941">
        <ele>2073.366481</ele>
        <time>2026-06-27T09:09:59.457Z</time>
      </trkpt>
      <trkpt lat="46.843621" lon="10.913924">
        <ele>2074.910302</ele>
        <time>2026-06-27T09:10:07.046Z</time>
      </trkpt>
      <trkpt lat="46.843429" lon="10.913974">
        <ele>2076.348678</ele>
        <time>2026-06-27T09:10:14.138Z</time>
      </trkpt>
      <trkpt lat="46.843135" lon="10.913925">
        <ele>2077.791630</ele>
        <time>2026-06-27T09:10:24.680Z</time>
      </trkpt>
      <trkpt lat="46.842849" lon="10.913939">
        <ele>2079.187067</ele>
        <time>2026-06-27T09:10:34.708Z</time>
      </trkpt>
      <trkpt lat="46.842222" lon="10.913839">
        <ele>2082.262719</ele>
        <time>2026-06-27T09:10:56.584Z</time>
      </trkpt>
      <trkpt lat="46.842064" lon="10.913764">
        <ele>2083.072788</ele>
        <time>2026-06-27T09:11:02.299Z</time>
      </trkpt>
      <trkpt lat="46.841875" lon="10.913773">
        <ele>2083.994920</ele>
        <time>2026-06-27T09:11:08.817Z</time>
      </trkpt>
      <trkpt lat="46.841783" lon="10.913821">
        <ele>2084.471263</ele>
        <time>2026-06-27T09:11:12.188Z</time>
      </trkpt>
      <trkpt lat="46.841688" lon="10.913822">
        <ele>2084.934534</ele>
        <time>2026-06-27T09:11:15.455Z</time>
      </trkpt>
      <trkpt lat="46.841601" lon="10.913803">
        <ele>2085.303498</ele>
        <time>2026-06-27T09:11:18.464Z</time>
      </trkpt>
      <trkpt lat="46.841508" lon="10.913735">
        <ele>2085.711728</ele>
        <time>2026-06-27T09:11:22.018Z</time>
      </trkpt>
      <trkpt lat="46.841249" lon="10.913668">
        <ele>2086.744340</ele>
        <time>2026-06-27T09:11:30.965Z</time>
      </trkpt>
      <trkpt lat="46.840380" lon="10.913586">
        <ele>2090.163073</ele>
        <time>2026-06-27T09:12:00.012Z</time>
      </trkpt>
      <trkpt lat="46.840163" lon="10.913526">
        <ele>2091.030104</ele>
        <time>2026-06-27T09:12:07.280Z</time>
      </trkpt>
      <trkpt lat="46.839331" lon="10.913495">
        <ele>2093.364401</ele>
        <time>2026-06-27T09:12:34.328Z</time>
      </trkpt>
      <trkpt lat="46.839146" lon="10.913450">
        <ele>2093.785592</ele>
        <time>2026-06-27T09:12:40.300Z</time>
      </trkpt>
      <trkpt lat="46.838537" lon="10.913464">
        <ele>2095.153473</ele>
        <time>2026-06-27T09:12:59.446Z</time>
      </trkpt>
      <trkpt lat="46.838331" lon="10.913391">
        <ele>2095.629513</ele>
        <time>2026-06-27T09:13:06.003Z</time>
      </trkpt>
      <trkpt lat="46.838018" lon="10.913419">
        <ele>2096.147253</ele>
        <time>2026-06-27T09:13:15.636Z</time>
      </trkpt>
      <trkpt lat="46.837848" lon="10.913307">
        <ele>2096.125404</ele>
        <time>2026-06-27T09:13:21.326Z</time>
      </trkpt>
      <trkpt lat="46.837578" lon="10.913341">
        <ele>2096.093651</ele>
        <time>2026-06-27T09:13:29.550Z</time>
      </trkpt>
      <trkpt lat="46.837368" lon="10.913422">
        <ele>2096.068202</ele>
        <time>2026-06-27T09:13:36.051Z</time>
      </trkpt>
      <trkpt lat="46.837277" lon="10.913377">
        <ele>2096.056946</ele>
        <time>2026-06-27T09:13:38.948Z</time>
      </trkpt>
      <trkpt lat="46.837046" lon="10.913427">
        <ele>2096.029585</ele>
        <time>2026-06-27T09:13:45.900Z</time>
      </trkpt>
      <trkpt lat="46.836782" lon="10.913379">
        <ele>2095.998413</ele>
        <time>2026-06-27T09:13:53.491Z</time>
      </trkpt>
      <trkpt lat="46.836198" lon="10.913144">
        <ele>2095.881158</ele>
        <time>2026-06-27T09:14:11.518Z</time>
      </trkpt>
      <trkpt lat="46.835894" lon="10.913158">
        <ele>2095.755451</ele>
        <time>2026-06-27T09:14:20.602Z</time>
      </trkpt>
      <trkpt lat="46.835756" lon="10.913079">
        <ele>2095.694197</ele>
        <time>2026-06-27T09:14:25.000Z</time>
      </trkpt>
      <trkpt lat="46.835604" lon="10.912876">
        <ele>2095.609103</ele>
        <time>2026-06-27T09:14:31.046Z</time>
      </trkpt>
      <trkpt lat="46.835410" lon="10.912504">
        <ele>2095.476846</ele>
        <time>2026-06-27T09:14:40.276Z</time>
      </trkpt>
      <trkpt lat="46.835283" lon="10.912402">
        <ele>2095.416955</ele>
        <time>2026-06-27T09:14:44.372Z</time>
      </trkpt>
      <trkpt lat="46.834834" lon="10.912203">
        <ele>2095.223039</ele>
        <time>2026-06-27T09:14:58.378Z</time>
      </trkpt>
      <trkpt lat="46.834240" lon="10.911765">
        <ele>2098.019107</ele>
        <time>2026-06-27T09:15:18.993Z</time>
      </trkpt>
      <trkpt lat="46.833289" lon="10.910946">
        <ele>2103.072293</ele>
        <time>2026-06-27T09:15:59.291Z</time>
      </trkpt>
      <trkpt lat="46.833174" lon="10.910930">
        <ele>2103.753079</ele>
        <time>2026-06-27T09:16:04.609Z</time>
      </trkpt>
      <trkpt lat="46.833028" lon="10.910798">
        <ele>2105.265028</ele>
        <time>2026-06-27T09:16:12.526Z</time>
      </trkpt>
      <trkpt lat="46.832787" lon="10.910706">
        <ele>2107.458765</ele>
        <time>2026-06-27T09:16:24.111Z</time>
      </trkpt>
      <trkpt lat="46.832566" lon="10.910485">
        <ele>2109.817075</ele>
        <time>2026-06-27T09:16:36.635Z</time>
      </trkpt>
      <trkpt lat="46.832371" lon="10.910301">
        <ele>2111.861247</ele>
        <time>2026-06-27T09:16:47.524Z</time>
      </trkpt>
      <trkpt lat="46.831821" lon="10.909958">
        <ele>2117.127695</ele>
        <time>2026-06-27T09:17:14.926Z</time>
      </trkpt>
      <trkpt lat="46.831564" lon="10.909742">
        <ele>2119.686407</ele>
        <time>2026-06-27T09:17:27.746Z</time>
      </trkpt>
      <trkpt lat="46.830880" lon="10.909308">
        <ele>2125.509077</ele>
        <time>2026-06-27T09:17:55.791Z</time>
      </trkpt>
      <trkpt lat="46.830598" lon="10.909010">
        <ele>2128.226346</ele>
        <time>2026-06-27T09:18:09.385Z</time>
      </trkpt>
      <trkpt lat="46.830379" lon="10.908976">
        <ele>2129.946067</ele>
        <time>2026-06-27T09:18:18.463Z</time>
      </trkpt>
      <trkpt lat="46.830299" lon="10.908998">
        <ele>2130.581722</ele>
        <time>2026-06-27T09:18:21.953Z</time>
      </trkpt>
      <trkpt lat="46.830241" lon="10.909012">
        <ele>2131.040760</ele>
        <time>2026-06-27T09:18:24.427Z</time>
      </trkpt>
      <trkpt lat="46.829903" lon="10.908835">
        <ele>2134.063073</ele>
        <time>2026-06-27T09:18:40.456Z</time>
      </trkpt>
      <trkpt lat="46.829703" lon="10.908608">
        <ele>2136.869497</ele>
        <time>2026-06-27T09:18:52.473Z</time>
      </trkpt>
      <trkpt lat="46.829588" lon="10.908568">
        <ele>2138.179632</ele>
        <time>2026-06-27T09:18:58.278Z</time>
      </trkpt>
      <trkpt lat="46.828537" lon="10.907955">
        <ele>2150.721032</ele>
        <time>2026-06-27T09:19:58.372Z</time>
      </trkpt>
      <trkpt lat="46.828252" lon="10.907860">
        <ele>2153.894140</ele>
        <time>2026-06-27T09:20:13.143Z</time>
      </trkpt>
      <trkpt lat="46.827641" lon="10.907434">
        <ele>2160.686237</ele>
        <time>2026-06-27T09:20:44.462Z</time>
      </trkpt>
      <trkpt lat="46.827455" lon="10.907358">
        <ele>2162.623977</ele>
        <time>2026-06-27T09:20:52.526Z</time>
      </trkpt>
      <trkpt lat="46.827303" lon="10.907238">
        <ele>2164.357293</ele>
        <time>2026-06-27T09:20:59.839Z</time>
      </trkpt>
      <trkpt lat="46.827150" lon="10.907201">
        <ele>2165.913252</ele>
        <time>2026-06-27T09:21:06.600Z</time>
      </trkpt>
      <trkpt lat="46.827009" lon="10.907116">
        <ele>2167.443553</ele>
        <time>2026-06-27T09:21:13.613Z</time>
      </trkpt>
      <trkpt lat="46.826750" lon="10.906921">
        <ele>2170.366690</ele>
        <time>2026-06-27T09:21:27.943Z</time>
      </trkpt>
      <trkpt lat="46.826698" lon="10.906829">
        <ele>2171.185881</ele>
        <time>2026-06-27T09:21:32.162Z</time>
      </trkpt>
      <trkpt lat="46.826529" lon="10.906627">
        <ele>2173.174388</ele>
        <time>2026-06-27T09:21:43.448Z</time>
      </trkpt>
      <trkpt lat="46.826445" lon="10.906472">
        <ele>2174.399545</ele>
        <time>2026-06-27T09:21:50.531Z</time>
      </trkpt>
      <trkpt lat="46.826299" lon="10.906314">
        <ele>2176.044690</ele>
        <time>2026-06-27T09:21:59.996Z</time>
      </trkpt>
      <trkpt lat="46.826246" lon="10.906184">
        <ele>2176.982338</ele>
        <time>2026-06-27T09:22:05.321Z</time>
      </trkpt>
      <trkpt lat="46.826141" lon="10.905695">
        <ele>2180.157947</ele>
        <time>2026-06-27T09:22:22.770Z</time>
      </trkpt>
      <trkpt lat="46.826088" lon="10.905553">
        <ele>2181.160195</ele>
        <time>2026-06-27T09:22:28.085Z</time>
      </trkpt>
      <trkpt lat="46.826046" lon="10.905334">
        <ele>2182.569447</ele>
        <time>2026-06-27T09:22:35.175Z</time>
      </trkpt>
      <trkpt lat="46.826049" lon="10.905152">
        <ele>2183.697474</ele>
        <time>2026-06-27T09:22:40.685Z</time>
      </trkpt>
      <trkpt lat="46.825971" lon="10.904972">
        <ele>2185.017644</ele>
        <time>2026-06-27T09:22:46.822Z</time>
      </trkpt>
      <trkpt lat="46.825649" lon="10.904928">
        <ele>2187.639327</ele>
        <time>2026-06-27T09:22:58.789Z</time>
      </trkpt>
      <trkpt lat="46.825452" lon="10.904844">
        <ele>2187.889269</ele>
        <time>2026-06-27T09:23:05.362Z</time>
      </trkpt>
      <trkpt lat="46.825379" lon="10.904780">
        <ele>2187.992951</ele>
        <time>2026-06-27T09:23:08.008Z</time>
      </trkpt>
      <trkpt lat="46.825335" lon="10.904681">
        <ele>2188.091331</ele>
        <time>2026-06-27T09:23:10.444Z</time>
      </trkpt>
      <trkpt lat="46.825157" lon="10.904685">
        <ele>2188.308154</ele>
        <time>2026-06-27T09:23:15.753Z</time>
      </trkpt>
      <trkpt lat="46.824777" lon="10.904293">
        <ele>2188.874660</ele>
        <time>2026-06-27T09:23:29.045Z</time>
      </trkpt>
      <trkpt lat="46.824492" lon="10.904210">
        <ele>2189.228605</ele>
        <time>2026-06-27T09:23:37.578Z</time>
      </trkpt>
      <trkpt lat="46.824361" lon="10.903934">
        <ele>2189.508539</ele>
        <time>2026-06-27T09:23:44.523Z</time>
      </trkpt>
      <trkpt lat="46.824159" lon="10.903981">
        <ele>2189.757666</ele>
        <time>2026-06-27T09:23:50.874Z</time>
      </trkpt>
      <trkpt lat="46.824057" lon="10.903938">
        <ele>2190.067357</ele>
        <time>2026-06-27T09:23:54.187Z</time>
      </trkpt>
      <trkpt lat="46.823754" lon="10.903477">
        <ele>2191.518291</ele>
        <time>2026-06-27T09:24:08.123Z</time>
      </trkpt>
      <trkpt lat="46.823608" lon="10.903428">
        <ele>2192.015219</ele>
        <time>2026-06-27T09:24:12.968Z</time>
      </trkpt>
      <trkpt lat="46.823279" lon="10.903136">
        <ele>2193.292091</ele>
        <time>2026-06-27T09:24:25.587Z</time>
      </trkpt>
      <trkpt lat="46.823140" lon="10.903134">
        <ele>2193.753214</ele>
        <time>2026-06-27T09:24:30.346Z</time>
      </trkpt>
      <trkpt lat="46.822741" lon="10.903034">
        <ele>2195.096125</ele>
        <time>2026-06-27T09:24:44.343Z</time>
      </trkpt>
      <trkpt lat="46.822614" lon="10.902884">
        <ele>2195.637802</ele>
        <time>2026-06-27T09:24:49.809Z</time>
      </trkpt>
      <trkpt lat="46.822489" lon="10.902911">
        <ele>2196.311076</ele>
        <time>2026-06-27T09:24:53.998Z</time>
      </trkpt>
      <trkpt lat="46.822407" lon="10.902892">
        <ele>2196.813654</ele>
        <time>2026-06-27T09:24:56.755Z</time>
      </trkpt>
      <trkpt lat="46.822108" lon="10.902667">
        <ele>2198.849468</ele>
        <time>2026-06-27T09:25:08.050Z</time>
      </trkpt>
      <trkpt lat="46.822069" lon="10.902634">
        <ele>2199.122267</ele>
        <time>2026-06-27T09:25:09.654Z</time>
      </trkpt>
      <trkpt lat="46.821869" lon="10.902518">
        <ele>2200.424806</ele>
        <time>2026-06-27T09:25:17.104Z</time>
      </trkpt>
      <trkpt lat="46.821503" lon="10.902461">
        <ele>2202.652890</ele>
        <time>2026-06-27T09:25:31.095Z</time>
      </trkpt>
      <trkpt lat="46.821323" lon="10.902398">
        <ele>2203.773312</ele>
        <time>2026-06-27T09:25:38.886Z</time>
      </trkpt>
      <trkpt lat="46.820873" lon="10.901880">
        <ele>2207.205992</ele>
        <time>2026-06-27T09:26:02.853Z</time>
      </trkpt>
      <trkpt lat="46.820832" lon="10.901778">
        <ele>2207.667688</ele>
        <time>2026-06-27T09:26:06.208Z</time>
      </trkpt>
      <trkpt lat="46.820718" lon="10.901615">
        <ele>2208.577351</ele>
        <time>2026-06-27T09:26:12.745Z</time>
      </trkpt>
      <trkpt lat="46.820380" lon="10.901394">
        <ele>2210.689333</ele>
        <time>2026-06-27T09:26:27.737Z</time>
      </trkpt>
      <trkpt lat="46.820224" lon="10.901164">
        <ele>2211.953253</ele>
        <time>2026-06-27T09:26:36.185Z</time>
      </trkpt>
      <trkpt lat="46.820076" lon="10.901167">
        <ele>2212.797468</ele>
        <time>2026-06-27T09:26:41.601Z</time>
      </trkpt>
      <trkpt lat="46.819793" lon="10.901012">
        <ele>2214.521232</ele>
        <time>2026-06-27T09:26:52.230Z</time>
      </trkpt>
      <trkpt lat="46.819663" lon="10.901018">
        <ele>2215.263071</ele>
        <time>2026-06-27T09:26:56.549Z</time>
      </trkpt>
      <trkpt lat="46.819367" lon="10.900913">
        <ele>2216.975986</ele>
        <time>2026-06-27T09:27:06.329Z</time>
      </trkpt>
      <trkpt lat="46.819222" lon="10.900641">
        <ele>2218.008767</ele>
        <time>2026-06-27T09:27:13.739Z</time>
      </trkpt>
      <trkpt lat="46.819158" lon="10.900588">
        <ele>2218.330765</ele>
        <time>2026-06-27T09:27:16.025Z</time>
      </trkpt>
      <trkpt lat="46.818983" lon="10.900614">
        <ele>2219.100730</ele>
        <time>2026-06-27T09:27:21.546Z</time>
      </trkpt>
      <trkpt lat="46.818859" lon="10.900518">
        <ele>2219.714974</ele>
        <time>2026-06-27T09:27:25.942Z</time>
      </trkpt>
      <trkpt lat="46.818456" lon="10.900318">
        <ele>2221.577951</ele>
        <time>2026-06-27T09:27:39.698Z</time>
      </trkpt>
      <trkpt lat="46.818268" lon="10.900343">
        <ele>2222.404272</ele>
        <time>2026-06-27T09:27:46.222Z</time>
      </trkpt>
      <trkpt lat="46.818145" lon="10.900258">
        <ele>2222.999839</ele>
        <time>2026-06-27T09:27:51.149Z</time>
      </trkpt>
      <trkpt lat="46.817998" lon="10.900078">
        <ele>2223.839329</ele>
        <time>2026-06-27T09:27:58.316Z</time>
      </trkpt>
      <trkpt lat="46.817855" lon="10.899976">
        <ele>2224.535861</ele>
        <time>2026-06-27T09:28:04.531Z</time>
      </trkpt>
      <trkpt lat="46.817723" lon="10.899780">
        <ele>2226.097147</ele>
        <time>2026-06-27T09:28:12.195Z</time>
      </trkpt>
      <trkpt lat="46.817542" lon="10.899597">
        <ele>2228.262931</ele>
        <time>2026-06-27T09:28:21.733Z</time>
      </trkpt>
      <trkpt lat="46.817264" lon="10.899405">
        <ele>2231.288597</ele>
        <time>2026-06-27T09:28:35.659Z</time>
      </trkpt>
      <trkpt lat="46.817208" lon="10.899294">
        <ele>2232.217214</ele>
        <time>2026-06-27T09:28:40.206Z</time>
      </trkpt>
      <trkpt lat="46.817107" lon="10.899198">
        <ele>2233.402800</ele>
        <time>2026-06-27T09:28:46.279Z</time>
      </trkpt>
      <trkpt lat="46.817000" lon="10.899145">
        <ele>2234.514526</ele>
        <time>2026-06-27T09:28:52.141Z</time>
      </trkpt>
      <trkpt lat="46.816869" lon="10.899207">
        <ele>2235.869493</ele>
        <time>2026-06-27T09:28:59.418Z</time>
      </trkpt>
      <trkpt lat="46.816736" lon="10.899222">
        <ele>2237.182108</ele>
        <time>2026-06-27T09:29:06.393Z</time>
      </trkpt>
      <trkpt lat="46.816593" lon="10.899178">
        <ele>2238.620087</ele>
        <time>2026-06-27T09:29:13.791Z</time>
      </trkpt>
      <trkpt lat="46.816502" lon="10.899067">
        <ele>2239.786498</ele>
        <time>2026-06-27T09:29:19.616Z</time>
      </trkpt>
      <trkpt lat="46.816379" lon="10.898816">
        <ele>2241.865364</ele>
        <time>2026-06-27T09:29:29.797Z</time>
      </trkpt>
      <trkpt lat="46.816242" lon="10.898609">
        <ele>2243.838508</ele>
        <time>2026-06-27T09:29:39.133Z</time>
      </trkpt>
      <trkpt lat="46.816093" lon="10.898430">
        <ele>2245.784785</ele>
        <time>2026-06-27T09:29:48.234Z</time>
      </trkpt>
      <trkpt lat="46.815918" lon="10.898326">
        <ele>2247.690996</ele>
        <time>2026-06-27T09:29:57.089Z</time>
      </trkpt>
      <trkpt lat="46.815796" lon="10.898380">
        <ele>2248.977221</ele>
        <time>2026-06-27T09:30:03.007Z</time>
      </trkpt>
      <trkpt lat="46.815677" lon="10.898320">
        <ele>2250.247410</ele>
        <time>2026-06-27T09:30:08.839Z</time>
      </trkpt>
      <trkpt lat="46.815383" lon="10.898140">
        <ele>2253.463760</ele>
        <time>2026-06-27T09:30:23.629Z</time>
      </trkpt>
      <trkpt lat="46.815240" lon="10.898008">
        <ele>2255.170428</ele>
        <time>2026-06-27T09:30:31.406Z</time>
      </trkpt>
      <trkpt lat="46.815144" lon="10.897976">
        <ele>2256.163960</ele>
        <time>2026-06-27T09:30:35.801Z</time>
      </trkpt>
      <trkpt lat="46.814970" lon="10.897831">
        <ele>2258.185076</ele>
        <time>2026-06-27T09:30:44.671Z</time>
      </trkpt>
      <trkpt lat="46.814611" lon="10.897621">
        <ele>2262.517204</ele>
        <time>2026-06-27T09:31:02.992Z</time>
      </trkpt>
      <trkpt lat="46.814462" lon="10.897455">
        <ele>2264.960771</ele>
        <time>2026-06-27T09:31:12.469Z</time>
      </trkpt>
      <trkpt lat="46.814192" lon="10.897358">
        <ele>2268.586846</ele>
        <time>2026-06-27T09:31:27.153Z</time>
      </trkpt>
      <trkpt lat="46.813885" lon="10.897175">
        <ele>2272.910928</ele>
        <time>2026-06-27T09:31:45.749Z</time>
      </trkpt>
      <trkpt lat="46.813578" lon="10.896938">
        <ele>2277.439107</ele>
        <time>2026-06-27T09:32:06.144Z</time>
      </trkpt>
      <trkpt lat="46.812684" lon="10.896353">
        <ele>2290.638790</ele>
        <time>2026-06-27T09:33:05.496Z</time>
      </trkpt>
      <trkpt lat="46.812251" lon="10.896149">
        <ele>2296.982487</ele>
        <time>2026-06-27T09:33:32.085Z</time>
      </trkpt>
      <trkpt lat="46.811775" lon="10.896099">
        <ele>2303.636798</ele>
        <time>2026-06-27T09:33:59.170Z</time>
      </trkpt>
      <trkpt lat="46.811539" lon="10.895933">
        <ele>2307.288954</ele>
        <time>2026-06-27T09:34:13.730Z</time>
      </trkpt>
      <trkpt lat="46.811326" lon="10.895916">
        <ele>2310.247774</ele>
        <time>2026-06-27T09:34:25.606Z</time>
      </trkpt>
      <trkpt lat="46.810739" lon="10.895610">
        <ele>2318.815947</ele>
        <time>2026-06-27T09:35:00.638Z</time>
      </trkpt>
      <trkpt lat="46.810652" lon="10.895609">
        <ele>2320.012040</ele>
        <time>2026-06-27T09:35:05.646Z</time>
      </trkpt>
      <trkpt lat="46.809772" lon="10.895231">
        <ele>2332.622056</ele>
        <time>2026-06-27T09:35:58.133Z</time>
      </trkpt>
      <trkpt lat="46.809605" lon="10.895248">
        <ele>2335.155630</ele>
        <time>2026-06-27T09:36:08.040Z</time>
      </trkpt>
      <trkpt lat="46.809177" lon="10.894828">
        <ele>2343.820093</ele>
        <time>2026-06-27T09:36:40.044Z</time>
      </trkpt>
      <trkpt lat="46.808986" lon="10.894811">
        <ele>2347.035885</ele>
        <time>2026-06-27T09:36:52.739Z</time>
      </trkpt>
      <trkpt lat="46.808615" lon="10.894598">
        <ele>2353.734797</ele>
        <time>2026-06-27T09:37:20.603Z</time>
      </trkpt>
      <trkpt lat="46.808469" lon="10.894473">
        <ele>2356.578626</ele>
        <time>2026-06-27T09:37:32.582Z</time>
      </trkpt>
      <trkpt lat="46.808451" lon="10.894423">
        <ele>2357.228444</ele>
        <time>2026-06-27T09:37:35.313Z</time>
      </trkpt>
      <trkpt lat="46.808529" lon="10.894132">
        <ele>2360.823138</ele>
        <time>2026-06-27T09:37:50.450Z</time>
      </trkpt>
      <trkpt lat="46.808531" lon="10.893983">
        <ele>2362.537310</ele>
        <time>2026-06-27T09:37:57.638Z</time>
      </trkpt>
      <trkpt lat="46.808493" lon="10.893925">
        <ele>2363.460829</ele>
        <time>2026-06-27T09:38:01.500Z</time>
      </trkpt>
      <trkpt lat="46.808339" lon="10.893896">
        <ele>2365.997023</ele>
        <time>2026-06-27T09:38:12.322Z</time>
      </trkpt>
      <trkpt lat="46.808230" lon="10.893832">
        <ele>2367.897550</ele>
        <time>2026-06-27T09:38:20.416Z</time>
      </trkpt>
      <trkpt lat="46.808007" lon="10.893592">
        <ele>2372.378503</ele>
        <time>2026-06-27T09:38:39.130Z</time>
      </trkpt>
      <trkpt lat="46.807831" lon="10.893505">
        <ele>2375.384471</ele>
        <time>2026-06-27T09:38:51.412Z</time>
      </trkpt>
      <trkpt lat="46.807563" lon="10.893257">
        <ele>2380.516816</ele>
        <time>2026-06-27T09:39:11.659Z</time>
      </trkpt>
      <trkpt lat="46.807282" lon="10.893047">
        <ele>2385.623186</ele>
        <time>2026-06-27T09:39:30.765Z</time>
      </trkpt>
      <trkpt lat="46.805446" lon="10.891498">
        <ele>2418.523630</ele>
        <time>2026-06-27T09:41:40.844Z</time>
      </trkpt>
      <trkpt lat="46.805293" lon="10.891172">
        <ele>2422.501746</ele>
        <time>2026-06-27T09:41:58.608Z</time>
      </trkpt>
      <trkpt lat="46.805107" lon="10.891128">
        <ele>2425.131198</ele>
        <time>2026-06-27T09:42:11.063Z</time>
      </trkpt>
      <trkpt lat="46.804523" lon="10.890639">
        <ele>2434.524633</ele>
        <time>2026-06-27T09:42:52.754Z</time>
      </trkpt>
      <trkpt lat="46.804241" lon="10.890219">
        <ele>2440.144436</ele>
        <time>2026-06-27T09:43:14.732Z</time>
      </trkpt>
      <trkpt lat="46.804089" lon="10.889893">
        <ele>2443.912251</ele>
        <time>2026-06-27T09:43:28.572Z</time>
      </trkpt>
      <trkpt lat="46.803512" lon="10.889726">
        <ele>2451.453729</ele>
        <time>2026-06-27T09:43:58.162Z</time>
      </trkpt>
      <trkpt lat="46.803122" lon="10.889462">
        <ele>2456.810829</ele>
        <time>2026-06-27T09:44:20.150Z</time>
      </trkpt>
      <trkpt lat="46.803055" lon="10.889370">
        <ele>2457.956824</ele>
        <time>2026-06-27T09:44:24.923Z</time>
      </trkpt>
      <trkpt lat="46.802981" lon="10.889076">
        <ele>2460.629186</ele>
        <time>2026-06-27T09:44:36.111Z</time>
      </trkpt>
      <trkpt lat="46.803012" lon="10.888594">
        <ele>2464.759333</ele>
        <time>2026-06-27T09:44:54.585Z</time>
      </trkpt>
      <trkpt lat="46.802986" lon="10.888523">
        <ele>2465.446279</ele>
        <time>2026-06-27T09:44:57.857Z</time>
      </trkpt>
      <trkpt lat="46.802949" lon="10.888485">
        <ele>2466.009968</ele>
        <time>2026-06-27T09:45:00.511Z</time>
      </trkpt>
      <trkpt lat="46.802726" lon="10.888505">
        <ele>2468.709069</ele>
        <time>2026-06-27T09:45:13.973Z</time>
      </trkpt>
      <trkpt lat="46.802441" lon="10.888244">
        <ele>2472.180638</ele>
        <time>2026-06-27T09:45:34.703Z</time>
      </trkpt>
      <trkpt lat="46.802357" lon="10.888113">
        <ele>2473.448746</ele>
        <time>2026-06-27T09:45:42.118Z</time>
      </trkpt>
      <trkpt lat="46.801794" lon="10.887546">
        <ele>2480.506261</ele>
        <time>2026-06-27T09:46:19.431Z</time>
      </trkpt>
      <trkpt lat="46.801680" lon="10.887355">
        <ele>2482.296546</ele>
        <time>2026-06-27T09:46:27.209Z</time>
      </trkpt>
      <trkpt lat="46.801656" lon="10.887334">
        <ele>2482.585276</ele>
        <time>2026-06-27T09:46:28.397Z</time>
      </trkpt>
      <trkpt lat="46.801269" lon="10.886984">
        <ele>2486.611468</ele>
        <time>2026-06-27T09:46:44.975Z</time>
      </trkpt>
      <trkpt lat="46.801189" lon="10.886913">
        <ele>2486.040589</ele>
        <time>2026-06-27T09:46:47.896Z</time>
      </trkpt>
      <trkpt lat="46.801085" lon="10.886764">
        <ele>2485.152202</ele>
        <time>2026-06-27T09:46:52.382Z</time>
      </trkpt>
      <trkpt lat="46.801189" lon="10.886913">
        <ele>2484.263815</ele>
        <time>2026-06-27T09:46:56.677Z</time>
      </trkpt>
      <trkpt lat="46.801269" lon="10.886984">
        <ele>2483.692936</ele>
        <time>2026-06-27T09:46:59.204Z</time>
      </trkpt>
      <trkpt lat="46.801680" lon="10.887355">
        <ele>2480.746445</ele>
        <time>2026-06-27T09:47:10.555Z</time>
      </trkpt>
      <trkpt lat="46.801794" lon="10.887546">
        <ele>2479.688529</ele>
        <time>2026-06-27T09:47:14.343Z</time>
      </trkpt>
      <trkpt lat="46.802357" lon="10.888113">
        <ele>2475.092966</ele>
        <time>2026-06-27T09:47:28.491Z</time>
      </trkpt>
      <trkpt lat="46.802441" lon="10.888244">
        <ele>2473.490224</ele>
        <time>2026-06-27T09:47:30.971Z</time>
      </trkpt>
      <trkpt lat="46.802726" lon="10.888505">
        <ele>2469.102559</ele>
        <time>2026-06-27T09:47:37.750Z</time>
      </trkpt>
      <trkpt lat="46.802949" lon="10.888485">
        <ele>2466.188221</ele>
        <time>2026-06-27T09:47:42.278Z</time>
      </trkpt>
      <trkpt lat="46.802986" lon="10.888523">
        <ele>2465.598254</ele>
        <time>2026-06-27T09:47:43.201Z</time>
      </trkpt>
      <trkpt lat="46.803012" lon="10.888594">
        <ele>2464.879285</ele>
        <time>2026-06-27T09:47:44.322Z</time>
      </trkpt>
      <trkpt lat="46.802981" lon="10.889076">
        <ele>2460.556606</ele>
        <time>2026-06-27T09:47:51.148Z</time>
      </trkpt>
      <trkpt lat="46.803055" lon="10.889370">
        <ele>2457.759669</ele>
        <time>2026-06-27T09:47:55.632Z</time>
      </trkpt>
      <trkpt lat="46.803122" lon="10.889462">
        <ele>2456.560252</ele>
        <time>2026-06-27T09:47:57.543Z</time>
      </trkpt>
      <trkpt lat="46.803512" lon="10.889726">
        <ele>2450.979025</ele>
        <time>2026-06-27T09:48:06.562Z</time>
      </trkpt>
      <trkpt lat="46.804089" lon="10.889893">
        <ele>2443.439311</ele>
        <time>2026-06-27T09:48:18.969Z</time>
      </trkpt>
      <trkpt lat="46.804241" lon="10.890219">
        <ele>2439.978512</ele>
        <time>2026-06-27T09:48:24.648Z</time>
      </trkpt>
      <trkpt lat="46.804523" lon="10.890639">
        <ele>2434.816633</ele>
        <time>2026-06-27T09:48:32.985Z</time>
      </trkpt>
      <trkpt lat="46.805107" lon="10.891128">
        <ele>2425.547479</ele>
        <time>2026-06-27T09:48:46.535Z</time>
      </trkpt>
      <trkpt lat="46.805293" lon="10.891172">
        <ele>2422.646253</ele>
        <time>2026-06-27T09:48:50.293Z</time>
      </trkpt>
      <trkpt lat="46.805446" lon="10.891498">
        <ele>2418.480383</ele>
        <time>2026-06-27T09:48:55.687Z</time>
      </trkpt>
      <trkpt lat="46.807282" lon="10.893047">
        <ele>2385.686277</ele>
        <time>2026-06-27T09:49:38.496Z</time>
      </trkpt>
      <trkpt lat="46.807563" lon="10.893257">
        <ele>2380.780612</ele>
        <time>2026-06-27T09:49:44.890Z</time>
      </trkpt>
      <trkpt lat="46.807831" lon="10.893505">
        <ele>2375.849994</ele>
        <time>2026-06-27T09:49:51.232Z</time>
      </trkpt>
      <trkpt lat="46.808007" lon="10.893592">
        <ele>2372.875588</ele>
        <time>2026-06-27T09:49:54.947Z</time>
      </trkpt>
      <trkpt lat="46.808230" lon="10.893832">
        <ele>2368.081791</ele>
        <time>2026-06-27T09:50:00.451Z</time>
      </trkpt>
      <trkpt lat="46.808339" lon="10.893896">
        <ele>2366.048577</ele>
        <time>2026-06-27T09:50:02.769Z</time>
      </trkpt>
      <trkpt lat="46.808493" lon="10.893925">
        <ele>2363.361099</ele>
        <time>2026-06-27T09:50:05.827Z</time>
      </trkpt>
      <trkpt lat="46.808531" lon="10.893983">
        <ele>2362.409964</ele>
        <time>2026-06-27T09:50:06.913Z</time>
      </trkpt>
      <trkpt lat="46.808529" lon="10.894132">
        <ele>2360.644533</ele>
        <time>2026-06-27T09:50:08.917Z</time>
      </trkpt>
      <trkpt lat="46.808451" lon="10.894423">
        <ele>2356.942347</ele>
        <time>2026-06-27T09:50:13.137Z</time>
      </trkpt>
      <trkpt lat="46.808469" lon="10.894473">
        <ele>2356.273098</ele>
        <time>2026-06-27T09:50:13.894Z</time>
      </trkpt>
      <trkpt lat="46.808615" lon="10.894598">
        <ele>2353.344229</ele>
        <time>2026-06-27T09:50:17.222Z</time>
      </trkpt>
      <trkpt lat="46.808986" lon="10.894811">
        <ele>2346.445001</ele>
        <time>2026-06-27T09:50:25.092Z</time>
      </trkpt>
      <trkpt lat="46.809177" lon="10.894828">
        <ele>2343.133047</ele>
        <time>2026-06-27T09:50:28.913Z</time>
      </trkpt>
      <trkpt lat="46.809605" lon="10.895248">
        <ele>2335.609958</ele>
        <time>2026-06-27T09:50:39.296Z</time>
      </trkpt>
      <trkpt lat="46.809772" lon="10.895231">
        <ele>2333.196501</ele>
        <time>2026-06-27T09:50:42.691Z</time>
      </trkpt>
      <trkpt lat="46.810652" lon="10.895609">
        <ele>2319.972742</ele>
        <time>2026-06-27T09:51:01.483Z</time>
      </trkpt>
      <trkpt lat="46.810739" lon="10.895610">
        <ele>2318.718434</ele>
        <time>2026-06-27T09:51:03.261Z</time>
      </trkpt>
      <trkpt lat="46.811326" lon="10.895916">
        <ele>2310.113086</ele>
        <time>2026-06-27T09:51:16.056Z</time>
      </trkpt>
      <trkpt lat="46.811539" lon="10.895933">
        <ele>2307.206290</ele>
        <time>2026-06-27T09:51:20.459Z</time>
      </trkpt>
      <trkpt lat="46.811775" lon="10.896099">
        <ele>2303.637177</ele>
        <time>2026-06-27T09:51:25.842Z</time>
      </trkpt>
      <trkpt lat="46.812251" lon="10.896149">
        <ele>2297.134169</ele>
        <time>2026-06-27T09:51:35.648Z</time>
      </trkpt>
      <trkpt lat="46.812684" lon="10.896353">
        <ele>2290.905661</ele>
        <time>2026-06-27T09:51:44.918Z</time>
      </trkpt>
      <trkpt lat="46.813578" lon="10.896938">
        <ele>2277.239454</ele>
        <time>2026-06-27T09:52:04.729Z</time>
      </trkpt>
      <trkpt lat="46.813885" lon="10.897175">
        <ele>2272.395331</ele>
        <time>2026-06-27T09:52:11.807Z</time>
      </trkpt>
      <trkpt lat="46.814192" lon="10.897358">
        <ele>2267.769545</ele>
        <time>2026-06-27T09:52:18.632Z</time>
      </trkpt>
      <trkpt lat="46.814462" lon="10.897455">
        <ele>2264.676378</ele>
        <time>2026-06-27T09:52:24.405Z</time>
      </trkpt>
      <trkpt lat="46.814611" lon="10.897621">
        <ele>2262.710565</ele>
        <time>2026-06-27T09:52:28.365Z</time>
      </trkpt>
      <trkpt lat="46.814970" lon="10.897831">
        <ele>2258.653449</ele>
        <time>2026-06-27T09:52:36.653Z</time>
      </trkpt>
      <trkpt lat="46.815144" lon="10.897976">
        <ele>2256.551888</ele>
        <time>2026-06-27T09:52:41.025Z</time>
      </trkpt>
      <trkpt lat="46.815240" lon="10.898008">
        <ele>2255.518810</ele>
        <time>2026-06-27T09:52:43.167Z</time>
      </trkpt>
      <trkpt lat="46.815383" lon="10.898140">
        <ele>2253.744214</ele>
        <time>2026-06-27T09:52:46.829Z</time>
      </trkpt>
      <trkpt lat="46.815677" lon="10.898320">
        <ele>2250.399845</ele>
        <time>2026-06-27T09:52:53.684Z</time>
      </trkpt>
      <trkpt lat="46.815796" lon="10.898380">
        <ele>2249.079099</ele>
        <time>2026-06-27T09:52:56.410Z</time>
      </trkpt>
      <trkpt lat="46.815918" lon="10.898326">
        <ele>2247.747749</ele>
        <time>2026-06-27T09:52:59.148Z</time>
      </trkpt>
      <trkpt lat="46.816093" lon="10.898430">
        <ele>2245.792574</ele>
        <time>2026-06-27T09:53:03.216Z</time>
      </trkpt>
      <trkpt lat="46.816242" lon="10.898609">
        <ele>2243.796304</ele>
        <time>2026-06-27T09:53:07.354Z</time>
      </trkpt>
      <trkpt lat="46.816379" lon="10.898816">
        <ele>2241.756787</ele>
        <time>2026-06-27T09:53:11.569Z</time>
      </trkpt>
      <trkpt lat="46.816502" lon="10.899067">
        <ele>2239.570333</ele>
        <time>2026-06-27T09:53:16.083Z</time>
      </trkpt>
      <trkpt lat="46.816593" lon="10.899178">
        <ele>2238.343557</ele>
        <time>2026-06-27T09:53:18.594Z</time>
      </trkpt>
      <trkpt lat="46.816736" lon="10.899222">
        <ele>2236.831159</ele>
        <time>2026-06-27T09:53:21.685Z</time>
      </trkpt>
      <trkpt lat="46.816869" lon="10.899207">
        <ele>2235.450612</ele>
        <time>2026-06-27T09:53:24.477Z</time>
      </trkpt>
      <trkpt lat="46.817000" lon="10.899145">
        <ele>2234.025522</ele>
        <time>2026-06-27T09:53:27.346Z</time>
      </trkpt>
      <trkpt lat="46.817107" lon="10.899198">
        <ele>2232.856262</ele>
        <time>2026-06-27T09:53:29.691Z</time>
      </trkpt>
      <trkpt lat="46.817208" lon="10.899294">
        <ele>2231.609318</ele>
        <time>2026-06-27T09:53:32.248Z</time>
      </trkpt>
      <trkpt lat="46.817264" lon="10.899405">
        <ele>2230.632642</ele>
        <time>2026-06-27T09:53:34.256Z</time>
      </trkpt>
      <trkpt lat="46.817542" lon="10.899597">
        <ele>2228.327789</ele>
        <time>2026-06-27T09:53:40.913Z</time>
      </trkpt>
      <trkpt lat="46.817723" lon="10.899780">
        <ele>2226.990975</ele>
        <time>2026-06-27T09:53:45.769Z</time>
      </trkpt>
      <trkpt lat="46.817855" lon="10.899976">
        <ele>2225.847994</ele>
        <time>2026-06-27T09:53:49.993Z</time>
      </trkpt>
      <trkpt lat="46.817998" lon="10.900078">
        <ele>2224.881514</ele>
        <time>2026-06-27T09:53:53.648Z</time>
      </trkpt>
      <trkpt lat="46.818145" lon="10.900258">
        <ele>2223.716672</ele>
        <time>2026-06-27T09:53:58.110Z</time>
      </trkpt>
      <trkpt lat="46.818268" lon="10.900343">
        <ele>2222.890287</ele>
        <time>2026-06-27T09:54:01.324Z</time>
      </trkpt>
      <trkpt lat="46.818456" lon="10.900318">
        <ele>2221.743718</ele>
        <time>2026-06-27T09:54:05.900Z</time>
      </trkpt>
      <trkpt lat="46.818859" lon="10.900518">
        <ele>2219.158727</ele>
        <time>2026-06-27T09:54:16.939Z</time>
      </trkpt>
      <trkpt lat="46.818983" lon="10.900614">
        <ele>2218.399927</ele>
        <time>2026-06-27T09:54:20.754Z</time>
      </trkpt>
      <trkpt lat="46.819158" lon="10.900588">
        <ele>2217.622470</ele>
        <time>2026-06-27T09:54:25.613Z</time>
      </trkpt>
      <trkpt lat="46.819222" lon="10.900641">
        <ele>2217.297339</ele>
        <time>2026-06-27T09:54:27.624Z</time>
      </trkpt>
      <trkpt lat="46.819367" lon="10.900913">
        <ele>2216.254509</ele>
        <time>2026-06-27T09:54:34.085Z</time>
      </trkpt>
      <trkpt lat="46.819663" lon="10.901018">
        <ele>2214.908249</ele>
        <time>2026-06-27T09:54:42.029Z</time>
      </trkpt>
      <trkpt lat="46.819793" lon="10.901012">
        <ele>2214.333385</ele>
        <time>2026-06-27T09:54:45.269Z</time>
      </trkpt>
      <trkpt lat="46.820076" lon="10.901167">
        <ele>2212.997612</ele>
        <time>2026-06-27T09:54:52.543Z</time>
      </trkpt>
      <trkpt lat="46.820224" lon="10.901164">
        <ele>2212.343415</ele>
        <time>2026-06-27T09:54:56.022Z</time>
      </trkpt>
      <trkpt lat="46.820380" lon="10.901394">
        <ele>2211.363982</ele>
        <time>2026-06-27T09:55:01.153Z</time>
      </trkpt>
      <trkpt lat="46.820718" lon="10.901615">
        <ele>2209.204122</ele>
        <time>2026-06-27T09:55:09.497Z</time>
      </trkpt>
      <trkpt lat="46.820832" lon="10.901778">
        <ele>2208.120026</ele>
        <time>2026-06-27T09:55:13.062Z</time>
      </trkpt>
      <trkpt lat="46.820873" lon="10.901880">
        <ele>2207.569798</ele>
        <time>2026-06-27T09:55:14.878Z</time>
      </trkpt>
      <trkpt lat="46.821323" lon="10.902398">
        <ele>2203.676066</ele>
        <time>2026-06-27T09:55:27.642Z</time>
      </trkpt>
      <trkpt lat="46.821503" lon="10.902461">
        <ele>2202.417951</ele>
        <time>2026-06-27T09:55:31.738Z</time>
      </trkpt>
      <trkpt lat="46.821869" lon="10.902518">
        <ele>2199.916050</ele>
        <time>2026-06-27T09:55:40.278Z</time>
      </trkpt>
      <trkpt lat="46.822069" lon="10.902634">
        <ele>2198.461560</ele>
        <time>2026-06-27T09:55:45.489Z</time>
      </trkpt>
      <trkpt lat="46.822108" lon="10.902667">
        <ele>2198.275192</ele>
        <time>2026-06-27T09:55:46.565Z</time>
      </trkpt>
      <trkpt lat="46.822407" lon="10.902892">
        <ele>2196.884375</ele>
        <time>2026-06-27T09:55:54.927Z</time>
      </trkpt>
      <trkpt lat="46.822489" lon="10.902911">
        <ele>2196.541026</ele>
        <time>2026-06-27T09:55:57.034Z</time>
      </trkpt>
      <trkpt lat="46.822614" lon="10.902884">
        <ele>2196.018471</ele>
        <time>2026-06-27T09:56:00.208Z</time>
      </trkpt>
      <trkpt lat="46.822741" lon="10.903034">
        <ele>2195.343181</ele>
        <time>2026-06-27T09:56:04.275Z</time>
      </trkpt>
      <trkpt lat="46.823140" lon="10.903134">
        <ele>2193.669020</ele>
        <time>2026-06-27T09:56:14.109Z</time>
      </trkpt>
      <trkpt lat="46.823279" lon="10.903136">
        <ele>2193.094155</ele>
        <time>2026-06-27T09:56:17.525Z</time>
      </trkpt>
      <trkpt lat="46.823608" lon="10.903428">
        <ele>2191.502323</ele>
        <time>2026-06-27T09:56:27.310Z</time>
      </trkpt>
      <trkpt lat="46.823754" lon="10.903477">
        <ele>2190.995858</ele>
        <time>2026-06-27T09:56:31.206Z</time>
      </trkpt>
      <trkpt lat="46.824057" lon="10.903938">
        <ele>2190.523085</ele>
        <time>2026-06-27T09:56:42.747Z</time>
      </trkpt>
      <trkpt lat="46.824159" lon="10.903981">
        <ele>2190.408338</ele>
        <time>2026-06-27T09:56:45.620Z</time>
      </trkpt>
      <trkpt lat="46.824361" lon="10.903934">
        <ele>2190.187246</ele>
        <time>2026-06-27T09:56:51.379Z</time>
      </trkpt>
      <trkpt lat="46.824492" lon="10.904210">
        <ele>2189.938816</ele>
        <time>2026-06-27T09:56:58.255Z</time>
      </trkpt>
      <trkpt lat="46.824777" lon="10.904293">
        <ele>2189.624703</ele>
        <time>2026-06-27T09:57:07.154Z</time>
      </trkpt>
      <trkpt lat="46.825157" lon="10.904685">
        <ele>2189.121949</ele>
        <time>2026-06-27T09:57:21.530Z</time>
      </trkpt>
      <trkpt lat="46.825335" lon="10.904681">
        <ele>2188.116359</ele>
        <time>2026-06-27T09:57:26.900Z</time>
      </trkpt>
      <trkpt lat="46.825379" lon="10.904780">
        <ele>2187.591279</ele>
        <time>2026-06-27T09:57:29.305Z</time>
      </trkpt>
      <trkpt lat="46.825452" lon="10.904844">
        <ele>2187.037903</ele>
        <time>2026-06-27T09:57:31.738Z</time>
      </trkpt>
      <trkpt lat="46.825649" lon="10.904928">
        <ele>2185.703897</ele>
        <time>2026-06-27T09:57:37.130Z</time>
      </trkpt>
      <trkpt lat="46.825971" lon="10.904972">
        <ele>2183.601577</ele>
        <time>2026-06-27T09:57:44.704Z</time>
      </trkpt>
      <trkpt lat="46.826049" lon="10.905152">
        <ele>2182.653913</ele>
        <time>2026-06-27T09:57:47.938Z</time>
      </trkpt>
      <trkpt lat="46.826046" lon="10.905334">
        <ele>2181.844177</ele>
        <time>2026-06-27T09:57:50.653Z</time>
      </trkpt>
      <trkpt lat="46.826088" lon="10.905553">
        <ele>2180.832568</ele>
        <time>2026-06-27T09:57:54.028Z</time>
      </trkpt>
      <trkpt lat="46.826141" lon="10.905695">
        <ele>2180.113120</ele>
        <time>2026-06-27T09:57:56.386Z</time>
      </trkpt>
      <trkpt lat="46.826246" lon="10.906184">
        <ele>2177.833559</ele>
        <time>2026-06-27T09:58:03.800Z</time>
      </trkpt>
      <trkpt lat="46.826299" lon="10.906314">
        <ele>2177.022638</ele>
        <time>2026-06-27T09:58:05.961Z</time>
      </trkpt>
      <trkpt lat="46.826445" lon="10.906472">
        <ele>2175.160500</ele>
        <time>2026-06-27T09:58:09.778Z</time>
      </trkpt>
      <trkpt lat="46.826529" lon="10.906627">
        <ele>2173.773746</ele>
        <time>2026-06-27T09:58:12.612Z</time>
      </trkpt>
      <trkpt lat="46.826698" lon="10.906829">
        <ele>2171.535915</ele>
        <time>2026-06-27T09:58:17.187Z</time>
      </trkpt>
      <trkpt lat="46.826750" lon="10.906921">
        <ele>2170.699002</ele>
        <time>2026-06-27T09:58:18.890Z</time>
      </trkpt>
      <trkpt lat="46.827009" lon="10.907116">
        <ele>2167.712629</ele>
        <time>2026-06-27T09:58:25.077Z</time>
      </trkpt>
      <trkpt lat="46.827150" lon="10.907201">
        <ele>2166.149222</ele>
        <time>2026-06-27T09:58:28.375Z</time>
      </trkpt>
      <trkpt lat="46.827303" lon="10.907238">
        <ele>2164.559604</ele>
        <time>2026-06-27T09:58:31.757Z</time>
      </trkpt>
      <trkpt lat="46.827455" lon="10.907358">
        <ele>2162.788791</ele>
        <time>2026-06-27T09:58:35.595Z</time>
      </trkpt>
      <trkpt lat="46.827641" lon="10.907434">
        <ele>2160.809132</ele>
        <time>2026-06-27T09:58:39.901Z</time>
      </trkpt>
      <trkpt lat="46.828252" lon="10.907860">
        <ele>2153.492062</ele>
        <time>2026-06-27T09:58:54.514Z</time>
      </trkpt>
      <trkpt lat="46.828537" lon="10.907955">
        <ele>2150.273294</ele>
        <time>2026-06-27T09:59:00.659Z</time>
      </trkpt>
      <trkpt lat="46.829588" lon="10.908568">
        <ele>2138.091153</ele>
        <time>2026-06-27T09:59:24.209Z</time>
      </trkpt>
      <trkpt lat="46.829703" lon="10.908608">
        <ele>2137.058672</ele>
        <time>2026-06-27T09:59:26.713Z</time>
      </trkpt>
      <trkpt lat="46.829903" lon="10.908835">
        <ele>2134.847007</ele>
        <time>2026-06-27T09:59:32.157Z</time>
      </trkpt>
      <trkpt lat="46.830241" lon="10.909012">
        <ele>2131.711098</ele>
        <time>2026-06-27T09:59:39.979Z</time>
      </trkpt>
      <trkpt lat="46.830299" lon="10.908998">
        <ele>2131.197654</ele>
        <time>2026-06-27T09:59:41.268Z</time>
      </trkpt>
      <trkpt lat="46.830379" lon="10.908976">
        <ele>2130.486659</ele>
        <time>2026-06-27T09:59:43.071Z</time>
      </trkpt>
      <trkpt lat="46.830598" lon="10.909010">
        <ele>2128.563112</ele>
        <time>2026-06-27T09:59:48.002Z</time>
      </trkpt>
      <trkpt lat="46.830880" lon="10.909308">
        <ele>2125.523784</ele>
        <time>2026-06-27T09:59:55.959Z</time>
      </trkpt>
      <trkpt lat="46.831564" lon="10.909742">
        <ele>2119.151389</ele>
        <time>2026-06-27T10:00:13.272Z</time>
      </trkpt>
      <trkpt lat="46.831821" lon="10.909958">
        <ele>2116.644013</ele>
        <time>2026-06-27T10:00:19.806Z</time>
      </trkpt>
      <trkpt lat="46.832371" lon="10.910301">
        <ele>2111.586513</ele>
        <time>2026-06-27T10:00:32.761Z</time>
      </trkpt>
      <trkpt lat="46.832566" lon="10.910485">
        <ele>2109.623443</ele>
        <time>2026-06-27T10:00:37.747Z</time>
      </trkpt>
      <trkpt lat="46.832787" lon="10.910706">
        <ele>2107.554480</ele>
        <time>2026-06-27T10:00:43.493Z</time>
      </trkpt>
      <trkpt lat="46.833028" lon="10.910798">
        <ele>2105.918280</ele>
        <time>2026-06-27T10:00:48.860Z</time>
      </trkpt>
      <trkpt lat="46.833174" lon="10.910930">
        <ele>2104.790591</ele>
        <time>2026-06-27T10:00:52.569Z</time>
      </trkpt>
      <trkpt lat="46.833289" lon="10.910946">
        <ele>2104.031755</ele>
        <time>2026-06-27T10:00:55.068Z</time>
      </trkpt>
      <trkpt lat="46.834240" lon="10.911765">
        <ele>2096.781148</ele>
        <time>2026-06-27T10:01:21.069Z</time>
      </trkpt>
      <trkpt lat="46.834834" lon="10.912203">
        <ele>2096.098435</ele>
        <time>2026-06-27T10:01:39.975Z</time>
      </trkpt>
      <trkpt lat="46.835283" lon="10.912402">
        <ele>2095.851071</ele>
        <time>2026-06-27T10:01:54.065Z</time>
      </trkpt>
      <trkpt lat="46.835410" lon="10.912504">
        <ele>2095.774673</ele>
        <time>2026-06-27T10:01:58.537Z</time>
      </trkpt>
      <trkpt lat="46.835604" lon="10.912876">
        <ele>2095.605963</ele>
        <time>2026-06-27T10:02:08.399Z</time>
      </trkpt>
      <trkpt lat="46.835756" lon="10.913079">
        <ele>2095.497416</ele>
        <time>2026-06-27T10:02:14.721Z</time>
      </trkpt>
      <trkpt lat="46.835894" lon="10.913158">
        <ele>2095.527392</ele>
        <time>2026-06-27T10:02:19.262Z</time>
      </trkpt>
      <trkpt lat="46.836198" lon="10.913144">
        <ele>2095.696232</ele>
        <time>2026-06-27T10:02:28.509Z</time>
      </trkpt>
      <trkpt lat="46.836782" lon="10.913379">
        <ele>2096.032481</ele>
        <time>2026-06-27T10:02:47.000Z</time>
      </trkpt>
      <trkpt lat="46.837046" lon="10.913427">
        <ele>2096.180162</ele>
        <time>2026-06-27T10:02:55.205Z</time>
      </trkpt>
      <trkpt lat="46.837277" lon="10.913377">
        <ele>2096.309793</ele>
        <time>2026-06-27T10:03:02.321Z</time>
      </trkpt>
      <trkpt lat="46.837368" lon="10.913422">
        <ele>2096.363121</ele>
        <time>2026-06-27T10:03:05.212Z</time>
      </trkpt>
      <trkpt lat="46.837578" lon="10.913341">
        <ele>2096.434966</ele>
        <time>2026-06-27T10:03:11.674Z</time>
      </trkpt>
      <trkpt lat="46.837848" lon="10.913307">
        <ele>2096.033514</ele>
        <time>2026-06-27T10:03:19.775Z</time>
      </trkpt>
      <trkpt lat="46.838018" lon="10.913419">
        <ele>2095.757286</ele>
        <time>2026-06-27T10:03:25.330Z</time>
      </trkpt>
      <trkpt lat="46.838331" lon="10.913391">
        <ele>2095.292749</ele>
        <time>2026-06-27T10:03:34.549Z</time>
      </trkpt>
      <trkpt lat="46.838537" lon="10.913464">
        <ele>2094.978748</ele>
        <time>2026-06-27T10:03:40.553Z</time>
      </trkpt>
      <trkpt lat="46.839146" lon="10.913450">
        <ele>2094.076480</ele>
        <time>2026-06-27T10:03:57.085Z</time>
      </trkpt>
      <trkpt lat="46.839331" lon="10.913495">
        <ele>2093.788598</ele>
        <time>2026-06-27T10:04:02.000Z</time>
      </trkpt>
      <trkpt lat="46.840163" lon="10.913526">
        <ele>2090.852969</ele>
        <time>2026-06-27T10:04:23.410Z</time>
      </trkpt>
      <trkpt lat="46.840380" lon="10.913586">
        <ele>2090.073985</ele>
        <time>2026-06-27T10:04:29.012Z</time>
      </trkpt>
      <trkpt lat="46.841249" lon="10.913668">
        <ele>2086.867937</ele>
        <time>2026-06-27T10:04:50.799Z</time>
      </trkpt>
      <trkpt lat="46.841508" lon="10.913735">
        <ele>2085.668505</ele>
        <time>2026-06-27T10:04:57.282Z</time>
      </trkpt>
      <trkpt lat="46.841601" lon="10.913803">
        <ele>2085.194324</ele>
        <time>2026-06-27T10:04:59.829Z</time>
      </trkpt>
      <trkpt lat="46.841688" lon="10.913822">
        <ele>2084.793187</ele>
        <time>2026-06-27T10:05:01.971Z</time>
      </trkpt>
      <trkpt lat="46.841783" lon="10.913821">
        <ele>2084.359959</ele>
        <time>2026-06-27T10:05:04.297Z</time>
      </trkpt>
      <trkpt lat="46.841875" lon="10.913773">
        <ele>2083.914508</ele>
        <time>2026-06-27T10:05:06.687Z</time>
      </trkpt>
      <trkpt lat="46.842064" lon="10.913764">
        <ele>2083.052178</ele>
        <time>2026-06-27T10:05:11.304Z</time>
      </trkpt>
      <trkpt lat="46.842222" lon="10.913839">
        <ele>2082.294643</ele>
        <time>2026-06-27T10:05:15.351Z</time>
      </trkpt>
      <trkpt lat="46.842849" lon="10.913939">
        <ele>2079.418452</ele>
        <time>2026-06-27T10:05:30.698Z</time>
      </trkpt>
      <trkpt lat="46.843135" lon="10.913925">
        <ele>2077.642734</ele>
        <time>2026-06-27T10:05:37.595Z</time>
      </trkpt>
      <trkpt lat="46.843429" lon="10.913974">
        <ele>2075.739052</ele>
        <time>2026-06-27T10:05:44.668Z</time>
      </trkpt>
      <trkpt lat="46.843621" lon="10.913924">
        <ele>2074.484390</ele>
        <time>2026-06-27T10:05:49.276Z</time>
      </trkpt>
      <trkpt lat="46.843825" lon="10.913941">
        <ele>2073.169838</ele>
        <time>2026-06-27T10:05:54.054Z</time>
      </trkpt>
      <trkpt lat="46.844110" lon="10.913997">
        <ele>2071.319823</ele>
        <time>2026-06-27T10:06:00.669Z</time>
      </trkpt>
      <trkpt lat="46.844402" lon="10.914119">
        <ele>2069.366057</ele>
        <time>2026-06-27T10:06:07.547Z</time>
      </trkpt>
      <trkpt lat="46.844721" lon="10.914102">
        <ele>2067.129382</ele>
        <time>2026-06-27T10:06:14.614Z</time>
      </trkpt>
      <trkpt lat="46.844949" lon="10.914043">
        <ele>2064.913925</ele>
        <time>2026-06-27T10:06:19.681Z</time>
      </trkpt>
      <trkpt lat="46.845607" lon="10.914056">
        <ele>2058.617476</ele>
        <time>2026-06-27T10:06:33.866Z</time>
      </trkpt>
      <trkpt lat="46.845851" lon="10.914021">
        <ele>2056.271626</ele>
        <time>2026-06-27T10:06:39.114Z</time>
      </trkpt>
      <trkpt lat="46.846210" lon="10.914062">
        <ele>2052.826180</ele>
        <time>2026-06-27T10:06:46.828Z</time>
      </trkpt>
      <trkpt lat="46.846352" lon="10.914032">
        <ele>2051.453384</ele>
        <time>2026-06-27T10:06:49.910Z</time>
      </trkpt>
      <trkpt lat="46.846667" lon="10.914129">
        <ele>2048.278263</ele>
        <time>2026-06-27T10:06:56.820Z</time>
      </trkpt>
      <trkpt lat="46.846834" lon="10.914119">
        <ele>2046.606849</ele>
        <time>2026-06-27T10:07:00.424Z</time>
      </trkpt>
      <trkpt lat="46.847171" lon="10.914158">
        <ele>2043.226281</ele>
        <time>2026-06-27T10:07:07.716Z</time>
      </trkpt>
      <trkpt lat="46.847671" lon="10.914094">
        <ele>2038.207115</ele>
        <time>2026-06-27T10:07:18.539Z</time>
      </trkpt>
      <trkpt lat="46.847870" lon="10.914107">
        <ele>2036.215113</ele>
        <time>2026-06-27T10:07:22.831Z</time>
      </trkpt>
      <trkpt lat="46.848042" lon="10.914169">
        <ele>2034.443599</ele>
        <time>2026-06-27T10:07:26.638Z</time>
      </trkpt>
      <trkpt lat="46.849289" lon="10.914313">
        <ele>2021.191383</ele>
        <time>2026-06-27T10:07:53.191Z</time>
      </trkpt>
      <trkpt lat="46.849421" lon="10.914356">
        <ele>2019.743793</ele>
        <time>2026-06-27T10:07:56.039Z</time>
      </trkpt>
      <trkpt lat="46.849695" lon="10.914511">
        <ele>2016.599004</ele>
        <time>2026-06-27T10:08:02.248Z</time>
      </trkpt>
      <trkpt lat="46.849995" lon="10.914539">
        <ele>2013.381224</ele>
        <time>2026-06-27T10:08:08.591Z</time>
      </trkpt>
      <trkpt lat="46.850875" lon="10.914377">
        <ele>2005.215152</ele>
        <time>2026-06-27T10:08:27.563Z</time>
      </trkpt>
      <trkpt lat="46.851076" lon="10.914452">
        <ele>2003.309981</ele>
        <time>2026-06-27T10:08:32.125Z</time>
      </trkpt>
      <trkpt lat="46.851299" lon="10.914468">
        <ele>2001.259454</ele>
        <time>2026-06-27T10:08:37.113Z</time>
      </trkpt>
      <trkpt lat="46.851458" lon="10.914390">
        <ele>1999.719184</ele>
        <time>2026-06-27T10:08:40.854Z</time>
      </trkpt>
      <trkpt lat="46.851828" lon="10.914285">
        <ele>1996.319328</ele>
        <time>2026-06-27T10:08:49.366Z</time>
      </trkpt>
      <trkpt lat="46.852089" lon="10.914301">
        <ele>1994.240369</ele>
        <time>2026-06-27T10:08:55.230Z</time>
      </trkpt>
      <trkpt lat="46.852574" lon="10.914138">
        <ele>1990.279922</ele>
        <time>2026-06-27T10:09:06.231Z</time>
      </trkpt>
      <trkpt lat="46.852671" lon="10.914105">
        <ele>1989.487342</ele>
        <time>2026-06-27T10:09:08.409Z</time>
      </trkpt>
      <trkpt lat="46.852969" lon="10.913876">
        <ele>1986.808197</ele>
        <time>2026-06-27T10:09:15.812Z</time>
      </trkpt>
      <trkpt lat="46.853249" lon="10.913828">
        <ele>1984.564592</ele>
        <time>2026-06-27T10:09:22.001Z</time>
      </trkpt>
      <trkpt lat="46.853401" lon="10.913721">
        <ele>1983.222045</ele>
        <time>2026-06-27T10:09:25.704Z</time>
      </trkpt>
      <trkpt lat="46.853665" lon="10.913674">
        <ele>1981.678437</ele>
        <time>2026-06-27T10:09:31.679Z</time>
      </trkpt>
      <trkpt lat="46.853765" lon="10.913564">
        <ele>1981.121448</ele>
        <time>2026-06-27T10:09:34.622Z</time>
      </trkpt>
      <trkpt lat="46.853861" lon="10.913362">
        <ele>1980.372674</ele>
        <time>2026-06-27T10:09:38.689Z</time>
      </trkpt>
      <trkpt lat="46.854087" lon="10.913135">
        <ele>1979.152274</ele>
        <time>2026-06-27T10:09:45.627Z</time>
      </trkpt>
      <trkpt lat="46.854245" lon="10.912963">
        <ele>1978.275517</ele>
        <time>2026-06-27T10:09:50.814Z</time>
      </trkpt>
      <trkpt lat="46.854276" lon="10.912890">
        <ele>1978.013955</ele>
        <time>2026-06-27T10:09:52.388Z</time>
      </trkpt>
      <trkpt lat="46.854308" lon="10.912594">
        <ele>1977.101768</ele>
        <time>2026-06-27T10:09:57.876Z</time>
      </trkpt>
      <trkpt lat="46.854270" lon="10.912384">
        <ele>1976.440547</ele>
        <time>2026-06-27T10:10:01.876Z</time>
      </trkpt>
      <trkpt lat="46.854292" lon="10.911860">
        <ele>1974.842533</ele>
        <time>2026-06-27T10:10:11.190Z</time>
      </trkpt>
      <trkpt lat="46.854278" lon="10.911658">
        <ele>1974.105071</ele>
        <time>2026-06-27T10:10:14.641Z</time>
      </trkpt>
      <trkpt lat="46.854295" lon="10.911525">
        <ele>1973.412238</ele>
        <time>2026-06-27T10:10:16.907Z</time>
      </trkpt>
      <trkpt lat="46.854456" lon="10.910977">
        <ele>1970.358153</ele>
        <time>2026-06-27T10:10:26.552Z</time>
      </trkpt>
      <trkpt lat="46.854477" lon="10.910765">
        <ele>1969.261261</ele>
        <time>2026-06-27T10:10:29.844Z</time>
      </trkpt>
      <trkpt lat="46.854520" lon="10.910597">
        <ele>1968.342723</ele>
        <time>2026-06-27T10:10:32.520Z</time>
      </trkpt>
      <trkpt lat="46.854492" lon="10.910413">
        <ele>1967.377491</ele>
        <time>2026-06-27T10:10:35.324Z</time>
      </trkpt>
      <trkpt lat="46.854332" lon="10.909897">
        <ele>1964.476342</ele>
        <time>2026-06-27T10:10:43.659Z</time>
      </trkpt>
      <trkpt lat="46.854276" lon="10.909340">
        <ele>1961.593510</ele>
        <time>2026-06-27T10:10:52.035Z</time>
      </trkpt>
      <trkpt lat="46.854335" lon="10.908848">
        <ele>1958.266296</ele>
        <time>2026-06-27T10:10:59.692Z</time>
      </trkpt>
      <trkpt lat="46.854324" lon="10.908554">
        <ele>1956.146701</ele>
        <time>2026-06-27T10:11:04.253Z</time>
      </trkpt>
      <trkpt lat="46.854365" lon="10.908532">
        <ele>1955.686966</ele>
        <time>2026-06-27T10:11:05.238Z</time>
      </trkpt>
      <trkpt lat="46.854466" lon="10.908944">
        <ele>1952.536283</ele>
        <time>2026-06-27T10:11:11.782Z</time>
      </trkpt>
      <trkpt lat="46.854681" lon="10.909597">
        <ele>1947.319065</ele>
        <time>2026-06-27T10:11:22.311Z</time>
      </trkpt>
      <trkpt lat="46.854699" lon="10.909773">
        <ele>1946.038005</ele>
        <time>2026-06-27T10:11:24.871Z</time>
      </trkpt>
      <trkpt lat="46.854805" lon="10.909950">
        <ele>1944.344317</ele>
        <time>2026-06-27T10:11:28.226Z</time>
      </trkpt>
      <trkpt lat="46.855192" lon="10.910374">
        <ele>1937.945055</ele>
        <time>2026-06-27T10:11:38.166Z</time>
      </trkpt>
      <trkpt lat="46.855412" lon="10.910655">
        <ele>1933.403436</ele>
        <time>2026-06-27T10:11:43.985Z</time>
      </trkpt>
      <trkpt lat="46.855568" lon="10.910915">
        <ele>1929.725832</ele>
        <time>2026-06-27T10:11:48.660Z</time>
      </trkpt>
      <trkpt lat="46.855732" lon="10.911107">
        <ele>1926.459483</ele>
        <time>2026-06-27T10:11:52.799Z</time>
      </trkpt>
      <trkpt lat="46.855893" lon="10.911383">
        <ele>1922.602373</ele>
        <time>2026-06-27T10:11:57.731Z</time>
      </trkpt>
      <trkpt lat="46.856083" lon="10.911623">
        <ele>1918.698786</ele>
        <time>2026-06-27T10:12:02.761Z</time>
      </trkpt>
      <trkpt lat="46.856113" lon="10.911711">
        <ele>1917.653336</ele>
        <time>2026-06-27T10:12:04.107Z</time>
      </trkpt>
      <trkpt lat="46.856160" lon="10.911803">
        <ele>1916.432357</ele>
        <time>2026-06-27T10:12:05.675Z</time>
      </trkpt>
      <trkpt lat="46.856203" lon="10.911769">
        <ele>1915.672325</ele>
        <time>2026-06-27T10:12:06.672Z</time>
      </trkpt>
      <trkpt lat="46.856296" lon="10.911495">
        <ele>1913.099326</ele>
        <time>2026-06-27T10:12:10.902Z</time>
      </trkpt>
      <trkpt lat="46.857007" lon="10.911915">
        <ele>1906.198777</ele>
        <time>2026-06-27T10:12:43.866Z</time>
      </trkpt>
      <trkpt lat="46.857717" lon="10.912335">
        <ele>1899.306584</ele>
        <time>2026-06-27T10:13:16.681Z</time>
      </trkpt>
      <trkpt lat="46.858427" lon="10.912756">
        <ele>1897.846880</ele>
        <time>2026-06-27T10:13:49.456Z</time>
      </trkpt>
      <trkpt lat="46.859137" lon="10.913176">
        <ele>1897.846880</ele>
        <time>2026-06-27T10:14:22.230Z</time>
      </trkpt>
      <trkpt lat="46.859847" lon="10.913596">
        <ele>1897.846880</ele>
        <time>2026-06-27T10:14:55.005Z</time>
      </trkpt>
    </trkseg>
  </trk>
</gpx>